createdAt,value
2022-10-11T00:02:58.180Z,101090.00
2022-10-11T00:06:04.085Z,101090.31
2022-10-11T00:09:07.629Z,101088.91
2022-10-11T00:12:11.448Z,101048.62
2022-10-11T00:15:17.326Z,101078.78
2022-10-11T00:18:21.091Z,101084.28
2022-10-11T00:21:25.322Z,101092.91
2022-10-11T00:24:28.874Z,101092.38
2022-10-11T00:27:32.438Z,101093.03
2022-10-11T00:30:35.925Z,101103.41
2022-10-11T00:33:39.588Z,101055.53
2022-10-11T00:36:43.065Z,101087.50
2022-10-11T00:39:46.138Z,101089.56
2022-10-11T00:42:49.341Z,101092.88
2022-10-11T00:45:58.150Z,101093.31
2022-10-11T00:49:19.750Z,101092.03
2022-10-11T00:52:38.075Z,101074.75
2022-10-11T00:55:51.874Z,101082.13
2022-10-11T00:58:56.399Z,101084.41
2022-10-11T01:01:59.835Z,101083.78
2022-10-11T01:05:27.587Z,101082.53
2022-10-11T01:08:27.652Z,101034.28
2022-10-11T01:11:31.542Z,101053.34
2022-10-11T01:14:47.902Z,101076.44
2022-10-11T01:18:03.889Z,101075.59
2022-10-11T01:21:26.740Z,101088.22
2022-10-11T01:25:03.808Z,101063.53
2022-10-11T01:28:27.212Z,101077.69
2022-10-11T01:32:00.114Z,101077.69
2022-10-11T01:35:42.702Z,101076.88
2022-10-11T01:38:53.035Z,101064.41
2022-10-11T01:42:00.772Z,101054.59
2022-10-11T01:45:05.786Z,101044.25
2022-10-11T01:48:13.002Z,101044.97
2022-10-11T01:51:16.330Z,101051.25
2022-10-11T01:55:07.684Z,101053.13
2022-10-11T01:58:19.833Z,101051.38
2022-10-11T02:01:38.009Z,101051.50
2022-10-11T02:04:53.618Z,101058.62
2022-10-11T02:08:18.085Z,101064.78
2022-10-11T02:11:30.671Z,101063.16
2022-10-11T02:14:41.524Z,101064.00
2022-10-11T02:17:51.776Z,101055.19
2022-10-11T02:21:00.850Z,101039.22
2022-10-11T02:24:11.586Z,101052.50
2022-10-11T02:27:17.441Z,101053.38
2022-10-11T02:30:20.908Z,101057.00
2022-10-11T02:33:31.524Z,101061.69
2022-10-11T02:36:48.259Z,101068.09
2022-10-11T02:40:04.200Z,101066.47
2022-10-11T02:43:29.167Z,101073.63
2022-10-11T02:46:33.765Z,101067.16
2022-10-11T02:49:37.506Z,101060.25
2022-10-11T02:52:40.856Z,101072.47
2022-10-11T02:55:44.332Z,101064.25
2022-10-11T02:58:47.796Z,101064.97
2022-10-11T03:01:51.327Z,101065.78
2022-10-11T03:04:54.394Z,101063.78
2022-10-11T03:07:58.602Z,101054.03
2022-10-11T03:11:01.379Z,101058.62
2022-10-11T03:14:05.672Z,101041.88
2022-10-11T03:17:34.633Z,101054.31
2022-10-11T03:20:32.691Z,101048.00
2022-10-11T03:23:35.789Z,101045.44
2022-10-11T03:26:39.144Z,101070.63
2022-10-11T03:29:42.326Z,101072.97
2022-10-11T03:32:46.446Z,101068.91
2022-10-11T03:35:50.337Z,101067.59
2022-10-11T03:38:55.022Z,101075.13
2022-10-11T03:41:58.110Z,101079.91
2022-10-11T03:45:05.548Z,101080.13
2022-10-11T03:48:09.526Z,101085.00
2022-10-11T03:51:13.415Z,101096.19
2022-10-11T03:54:16.455Z,101073.72
2022-10-11T03:57:20.848Z,101070.87
2022-10-11T04:00:24.195Z,101092.47
2022-10-11T04:03:28.001Z,101084.13
2022-10-11T04:06:31.310Z,101091.88
2022-10-11T04:09:35.215Z,101089.94
2022-10-11T04:12:39.283Z,101080.94
2022-10-11T04:15:42.673Z,101092.25
2022-10-11T04:18:45.800Z,101091.00
2022-10-11T04:21:49.383Z,101090.75
2022-10-11T04:24:52.416Z,101095.06
2022-10-11T04:27:55.843Z,101083.31
2022-10-11T04:30:59.833Z,101091.78
2022-10-11T04:34:04.671Z,101090.75
2022-10-11T04:37:07.841Z,101093.47
2022-10-11T04:40:12.821Z,101093.25
2022-10-11T04:43:17.725Z,101090.41
2022-10-11T04:46:21.725Z,101077.94
2022-10-11T04:49:25.034Z,101077.94
2022-10-11T04:52:28.605Z,101093.25
2022-10-11T04:55:31.896Z,101081.59
2022-10-11T04:58:35.933Z,101084.34
2022-10-11T05:01:39.401Z,101073.19
2022-10-11T05:04:43.042Z,101089.53
2022-10-11T05:07:46.322Z,101083.59
2022-10-11T05:11:01.686Z,101087.50
2022-10-11T05:14:04.715Z,101087.63
2022-10-11T05:17:08.397Z,101080.91
2022-10-11T05:20:12.892Z,101080.81
2022-10-11T05:23:16.296Z,101088.66
2022-10-11T05:26:20.663Z,101085.66
2022-10-11T05:29:24.056Z,101108.78
2022-10-11T05:32:28.098Z,101102.03
2022-10-11T05:35:31.589Z,101109.50
2022-10-11T05:38:35.577Z,101107.91
2022-10-11T05:41:39.171Z,101116.31
2022-10-11T05:44:51.984Z,101114.25
2022-10-11T05:47:55.317Z,101115.78
2022-10-11T05:51:00.415Z,101111.84
2022-10-11T05:54:03.653Z,101117.69
2022-10-11T05:57:06.949Z,101112.81
2022-10-11T06:00:11.564Z,101122.16
2022-10-11T06:03:16.996Z,101120.81
2022-10-11T06:06:20.971Z,101130.88
2022-10-11T06:09:24.479Z,101134.41
2022-10-11T06:12:30.267Z,101134.63
2022-10-11T06:15:34.275Z,101137.69
2022-10-11T06:18:38.316Z,101142.41
2022-10-11T06:21:41.467Z,101120.75
2022-10-11T06:24:44.986Z,101144.06
2022-10-11T06:27:48.032Z,101145.31
2022-10-11T06:30:51.831Z,101140.81
2022-10-11T06:33:55.116Z,101140.69
2022-10-11T06:36:58.523Z,101149.31
2022-10-11T06:40:02.445Z,101141.34
2022-10-11T06:43:06.196Z,101142.97
2022-10-11T06:46:09.468Z,101151.47
2022-10-11T06:49:13.246Z,101152.19
2022-10-11T06:52:16.719Z,101150.84
2022-10-11T06:55:20.780Z,101154.53
2022-10-11T06:58:24.388Z,101155.09
2022-10-11T07:01:29.053Z,101149.81
2022-10-11T07:04:34.071Z,101157.38
2022-10-11T07:07:37.581Z,101154.09
2022-10-11T07:10:41.023Z,101164.50
2022-10-11T07:13:50.986Z,101161.84
2022-10-11T07:16:58.793Z,101158.53
2022-10-11T07:20:09.735Z,101158.41
2022-10-11T07:23:12.892Z,101151.81
2022-10-11T07:26:16.659Z,101149.50
2022-10-11T07:29:20.414Z,101152.72
2022-10-11T07:32:23.813Z,101146.81
2022-10-11T07:35:26.843Z,101142.47
2022-10-11T07:38:30.399Z,101145.78
2022-10-11T07:41:33.912Z,101141.91
2022-10-11T07:44:37.333Z,101150.16
2022-10-11T07:47:40.438Z,101163.25
2022-10-11T07:50:44.115Z,101160.44
2022-10-11T07:53:50.140Z,101160.47
2022-10-11T07:56:53.463Z,101155.13
2022-10-11T07:59:56.804Z,101153.69
2022-10-11T08:03:03.967Z,101160.31
2022-10-11T08:06:09.949Z,101157.75
2022-10-11T08:09:14.076Z,101159.72
2022-10-11T08:12:18.124Z,101159.03
2022-10-11T08:15:22.321Z,101165.09
2022-10-11T08:18:27.041Z,101168.28
2022-10-11T08:21:30.132Z,101169.00
2022-10-11T08:24:38.320Z,101163.22
2022-10-11T08:27:41.629Z,101158.81
2022-10-11T08:30:53.991Z,101153.66
2022-10-11T08:33:57.205Z,101158.72
2022-10-11T08:37:00.876Z,101164.03
2022-10-11T08:40:06.240Z,101163.78
2022-10-11T08:43:29.589Z,101165.72
2022-10-11T08:46:35.329Z,101159.88
2022-10-11T08:49:40.824Z,101155.16
2022-10-11T08:52:57.770Z,101157.25
2022-10-11T08:56:03.352Z,101156.41
2022-10-11T08:59:13.585Z,101154.00
2022-10-11T09:02:26.333Z,101147.28
2022-10-11T09:05:49.671Z,101143.62
2022-10-11T09:09:11.632Z,101146.25
2022-10-11T09:12:40.529Z,101141.75
2022-10-11T09:16:19.763Z,101151.81
2022-10-11T09:19:28.755Z,101147.75
2022-10-11T09:22:46.157Z,101156.41
2022-10-11T09:26:02.438Z,101151.44
2022-10-11T09:29:29.750Z,101157.72
2022-10-11T09:32:40.386Z,101164.28
2022-10-11T09:35:47.912Z,101157.12
2022-10-11T09:39:06.527Z,101161.09
2022-10-11T09:42:12.030Z,101151.41
2022-10-11T09:45:19.043Z,101162.47
2022-10-11T09:48:30.769Z,101166.09
2022-10-11T09:51:34.758Z,101163.19
2022-10-11T09:54:49.631Z,101148.41
2022-10-11T09:57:55.679Z,101162.00
2022-10-11T10:01:08.519Z,101159.16
2022-10-11T10:04:14.855Z,101161.34
2022-10-11T10:07:18.024Z,101159.53
2022-10-11T10:10:29.882Z,101155.44
2022-10-11T10:13:46.731Z,101161.56
2022-10-11T10:16:59.419Z,101158.03
2022-10-11T10:20:05.752Z,101153.72
2022-10-11T10:23:24.973Z,101153.62
2022-10-11T10:26:28.089Z,101149.19
2022-10-11T10:29:31.449Z,101150.09
2022-10-11T10:32:47.551Z,101150.09
2022-10-11T10:36:07.435Z,101151.41
2022-10-11T10:39:47.910Z,101142.63
2022-10-11T10:42:51.560Z,101142.53
2022-10-11T10:46:13.163Z,101135.47
2022-10-11T10:49:53.798Z,101136.88
2022-10-11T10:53:14.576Z,101135.47
2022-10-11T10:56:29.923Z,101139.81
2022-10-11T10:59:46.548Z,101135.00
2022-10-11T11:03:42.828Z,101132.78
2022-10-11T11:06:59.684Z,101124.75
2022-10-11T11:10:07.845Z,101130.31
2022-10-11T11:13:23.551Z,101120.03
2022-10-11T11:16:42.266Z,101118.31
2022-10-11T11:20:00.889Z,101127.53
2022-10-11T11:23:29.716Z,101123.38
2022-10-11T11:26:48.051Z,101122.94
2022-10-11T11:30:04.092Z,101123.91
2022-10-11T11:33:37.116Z,101122.59
2022-10-11T11:36:56.490Z,101107.69
2022-10-11T11:40:15.702Z,101125.47
2022-10-11T11:43:39.998Z,101115.50
2022-10-11T11:46:50.647Z,101120.03
2022-10-11T11:49:59.545Z,101115.00
2022-10-11T11:53:08.136Z,101096.81
2022-10-11T11:56:26.050Z,101091.59
2022-10-11T11:59:59.589Z,101106.12
2022-10-11T12:03:11.976Z,101097.00
2022-10-11T12:06:16.047Z,101096.25
2022-10-11T12:09:19.167Z,101098.09
2022-10-11T12:12:29.358Z,101087.59
2022-10-11T12:15:34.320Z,101086.09
2022-10-11T12:18:56.606Z,101082.31
2022-10-11T12:22:26.641Z,101081.28
2022-10-11T12:25:38.387Z,101087.03
2022-10-11T12:28:41.337Z,101074.84
2022-10-11T12:32:11.557Z,101076.91
2022-10-11T12:35:50.125Z,101072.81
2022-10-11T12:39:21.383Z,101079.72
2022-10-11T12:42:31.907Z,101079.50
2022-10-11T12:45:35.461Z,101075.62
2022-10-11T12:49:01.619Z,101080.44
2022-10-11T12:52:19.436Z,101076.38
2022-10-11T12:55:35.558Z,101070.66
2022-10-11T12:58:46.476Z,101067.75
2022-10-11T13:01:58.863Z,101067.81
2022-10-11T13:05:15.640Z,101065.16
2022-10-11T13:08:25.675Z,101065.06
2022-10-11T13:11:33.857Z,101071.97
2022-10-11T13:14:43.820Z,101070.97
2022-10-11T13:17:48.919Z,101074.06
2022-10-11T13:20:52.913Z,101069.25
2022-10-11T13:24:00.076Z,101070.25
2022-10-11T13:27:03.888Z,101061.41
2022-10-11T13:30:17.005Z,101064.81
2022-10-11T13:33:32.382Z,101066.25
2022-10-11T13:36:36.108Z,101060.06
2022-10-11T13:39:40.346Z,101056.25
2022-10-11T13:42:45.033Z,101056.72
2022-10-11T13:45:49.185Z,101065.81
2022-10-11T13:49:05.348Z,101063.34
2022-10-11T13:52:23.539Z,101054.97
2022-10-11T13:55:30.613Z,101067.53
2022-10-11T13:58:40.546Z,101056.84
2022-10-11T14:01:47.664Z,101064.31
2022-10-11T14:04:51.314Z,101064.75
2022-10-11T14:07:56.084Z,101064.75
2022-10-11T14:11:06.332Z,101053.34
2022-10-11T14:14:35.730Z,101048.41
2022-10-11T14:17:45.133Z,101065.19
2022-10-11T14:20:48.570Z,101064.75
2022-10-11T14:24:21.725Z,101066.78
2022-10-11T14:27:27.992Z,101070.78
2022-10-11T14:30:31.717Z,101069.06
2022-10-11T14:33:35.332Z,101071.66
2022-10-11T14:36:38.674Z,101073.34
2022-10-11T14:39:42.581Z,101069.50
2022-10-11T14:42:46.064Z,101068.03
2022-10-11T14:45:49.113Z,101067.25
2022-10-11T14:48:55.907Z,101063.47
2022-10-11T14:51:59.891Z,101068.28
2022-10-11T14:55:05.272Z,101057.19
2022-10-11T14:58:10.436Z,101074.63
2022-10-11T15:01:15.988Z,101071.91
2022-10-11T15:04:23.762Z,101066.97
2022-10-11T15:07:27.630Z,101064.63
2022-10-11T15:10:39.378Z,101063.81
2022-10-11T15:13:42.980Z,101052.56
2022-10-11T15:16:46.435Z,101067.28
2022-10-11T15:19:50.956Z,101078.91
2022-10-11T15:22:54.758Z,101076.34
2022-10-11T15:25:58.070Z,101077.84
2022-10-11T15:29:01.557Z,101081.94
2022-10-11T15:32:05.056Z,101086.31
2022-10-11T15:35:08.426Z,101087.81
2022-10-11T15:38:21.437Z,101078.88
2022-10-11T15:41:24.466Z,101093.09
2022-10-11T15:44:27.848Z,101093.81
2022-10-11T15:47:30.890Z,101091.81
2022-10-11T15:50:39.845Z,101098.81
2022-10-11T15:53:42.965Z,101099.16
2022-10-11T15:56:48.068Z,101095.78
2022-10-11T15:59:51.049Z,101101.16
2022-10-11T16:02:58.268Z,101098.09
2022-10-11T16:06:05.377Z,101110.63
2022-10-11T16:09:09.748Z,101114.75
2022-10-11T16:12:13.052Z,101104.59
2022-10-11T16:15:16.949Z,101101.25
2022-10-11T16:18:22.290Z,101117.72
2022-10-11T16:21:26.519Z,101136.91
2022-10-11T16:24:29.886Z,101131.13
2022-10-11T16:27:34.131Z,101139.06
2022-10-11T16:30:45.199Z,101142.13
2022-10-11T16:33:48.981Z,101129.19
2022-10-11T16:36:52.390Z,101136.16
2022-10-11T16:39:57.308Z,101129.97
2022-10-11T16:43:07.501Z,101147.22
2022-10-11T16:46:10.934Z,101158.75
2022-10-11T16:49:23.512Z,101164.06
2022-10-11T16:52:28.227Z,101144.91
2022-10-11T16:55:31.610Z,101152.81
2022-10-11T16:58:36.571Z,101165.34
2022-10-11T17:01:41.036Z,101167.12
2022-10-11T17:04:45.442Z,101169.34
2022-10-11T17:07:48.642Z,101175.84
2022-10-11T17:10:57.730Z,101173.34
2022-10-11T17:14:01.870Z,101178.41
2022-10-11T17:17:06.633Z,101179.16
2022-10-11T17:20:10.261Z,101182.00
2022-10-11T17:23:13.784Z,101182.00
2022-10-11T17:26:26.471Z,101182.19
2022-10-11T17:29:30.072Z,101183.94
2022-10-11T17:32:33.372Z,101185.78
2022-10-11T17:35:36.386Z,101183.06
2022-10-11T17:38:40.248Z,101187.13
2022-10-11T17:41:44.500Z,101190.44
2022-10-11T17:44:53.950Z,101191.31
2022-10-11T17:48:00.751Z,101169.84
2022-10-11T17:51:15.095Z,101180.34
2022-10-11T17:54:19.691Z,101176.66
2022-10-11T17:57:26.584Z,101147.09
2022-10-11T18:00:52.283Z,101173.13
2022-10-11T18:04:00.830Z,101193.44
2022-10-11T18:07:12.525Z,101208.88
2022-10-11T18:10:30.904Z,101194.69
2022-10-11T18:13:45.221Z,101203.56
2022-10-11T18:17:14.392Z,101210.25
2022-10-11T18:20:20.068Z,101196.81
2022-10-11T18:23:27.366Z,101212.09
2022-10-11T18:26:41.619Z,101209.03
2022-10-11T18:30:22.307Z,101213.50
2022-10-11T18:33:28.854Z,101212.31
2022-10-11T18:36:47.632Z,101212.13
2022-10-11T18:40:03.802Z,101219.41
2022-10-11T18:43:22.286Z,101204.56
2022-10-11T18:46:51.731Z,101215.53
2022-10-11T18:50:11.198Z,101218.34
2022-10-11T18:54:22.668Z,101160.38
2022-10-11T18:57:07.771Z,101186.59
2022-10-11T19:00:40.884Z,101201.72
2022-10-11T19:04:10.409Z,101215.03
2022-10-11T19:07:35.064Z,101214.16
2022-10-11T19:10:41.063Z,101214.66
2022-10-11T19:14:01.724Z,101199.56
2022-10-11T19:17:23.031Z,101224.00
2022-10-11T19:20:49.545Z,101191.22
2022-10-11T19:23:58.834Z,101219.56
2022-10-11T19:27:09.864Z,101165.91
2022-10-11T19:30:28.516Z,101210.66
2022-10-11T19:33:44.691Z,101232.03
2022-10-11T19:37:01.191Z,101225.72
2022-10-11T19:40:10.867Z,101229.41
2022-10-11T19:43:17.594Z,101208.78
2022-10-11T19:46:53.394Z,101178.34
2022-10-11T19:49:52.442Z,101221.75
2022-10-11T19:53:01.366Z,101232.59
2022-10-11T19:56:27.522Z,101224.88
2022-10-11T19:59:44.030Z,101224.88
2022-10-11T20:02:58.889Z,101233.56
2022-10-11T20:06:14.597Z,101206.25
2022-10-11T20:09:40.021Z,101243.84
2022-10-11T20:12:53.407Z,101234.91
2022-10-11T20:16:05.719Z,101243.72
2022-10-11T20:19:31.063Z,101236.31
2022-10-11T20:22:38.297Z,101249.09
2022-10-11T20:25:59.890Z,101246.06
2022-10-11T20:29:06.007Z,101237.66
2022-10-11T20:32:13.949Z,101235.47
2022-10-11T20:35:26.214Z,101248.72
2022-10-11T20:38:52.587Z,101245.88
2022-10-11T20:42:00.059Z,101251.19
2022-10-11T20:45:07.632Z,101227.13
2022-10-11T20:48:13.516Z,101256.28
2022-10-11T20:51:25.447Z,101218.38
2022-10-11T20:54:31.764Z,101255.78
2022-10-11T21:01:19.284Z,101248.97
2022-10-11T21:04:29.250Z,101265.34
2022-10-11T21:07:37.062Z,101254.81
2022-10-11T21:11:02.629Z,101243.03
2022-10-11T21:14:12.722Z,101233.87
2022-10-11T21:17:17.437Z,101261.19
2022-10-11T21:20:20.618Z,101271.75
2022-10-11T21:23:24.250Z,101269.84
2022-10-11T21:26:28.560Z,101265.19
2022-10-11T21:29:31.945Z,101270.53
2022-10-11T21:32:35.280Z,101267.34
2022-10-11T21:35:40.302Z,101267.09
2022-10-11T21:38:44.033Z,101268.75
2022-10-11T21:41:47.384Z,101265.81
2022-10-11T21:44:50.722Z,101264.72
2022-10-11T21:47:54.269Z,101250.91
2022-10-11T21:50:57.239Z,101272.53
2022-10-11T21:54:01.266Z,101265.09
2022-10-11T21:57:04.252Z,101270.72
2022-10-11T22:00:08.407Z,101262.91
2022-10-11T22:03:16.046Z,101266.91
2022-10-11T22:06:19.638Z,101266.91
2022-10-11T22:09:22.824Z,101273.28
2022-10-11T22:12:26.131Z,101267.28
2022-10-11T22:15:29.266Z,101275.72
2022-10-11T22:18:33.828Z,101271.50
2022-10-11T22:21:40.134Z,101276.12
2022-10-11T22:24:45.927Z,101277.16
2022-10-11T22:27:49.134Z,101267.50
2022-10-11T22:30:52.380Z,101269.41
2022-10-11T22:33:56.843Z,101271.31
2022-10-11T22:37:01.317Z,101268.63
2022-10-11T22:40:04.831Z,101268.69
2022-10-11T22:43:09.437Z,101267.81
2022-10-11T22:46:15.271Z,101271.37
2022-10-11T22:49:21.166Z,101268.63
2022-10-11T22:52:24.471Z,101279.12
2022-10-11T22:55:29.058Z,101272.78
2022-10-11T22:58:32.580Z,101256.03
2022-10-11T23:01:36.585Z,101256.91
2022-10-11T23:04:43.184Z,101274.41
2022-10-11T23:07:48.341Z,101268.94
2022-10-11T23:10:52.888Z,101275.28
2022-10-11T23:13:56.183Z,101286.94
2022-10-11T23:16:59.208Z,101276.28
2022-10-11T23:20:02.750Z,101278.94
2022-10-11T23:23:06.987Z,101276.59
2022-10-11T23:26:16.479Z,101281.63
2022-10-11T23:29:19.518Z,101289.41
2022-10-11T23:32:23.417Z,101288.59
2022-10-11T23:35:26.720Z,101279.06
2022-10-11T23:38:30.003Z,101281.44
2022-10-11T23:41:33.088Z,101280.47
2022-10-11T23:44:36.538Z,101286.84
2022-10-11T23:47:40.424Z,101295.88
2022-10-11T23:50:44.130Z,101291.63
2022-10-11T23:53:47.410Z,101299.44
2022-10-11T23:56:50.719Z,101299.25
2022-10-11T23:59:53.734Z,101301.41
